sensor_id;sensor_type;location;lat;lon;timestamp;temperature;humidity
2050;DHT22;8478;49.208;8.806;2024-03-07T00:01:55;11.30;99.90
2050;DHT22;8478;49.208;8.806;2024-03-07T00:04:21;11.20;99.90
2050;DHT22;8478;49.208;8.806;2024-03-07T00:06:46;11.20;99.90
2050;DHT22;8478;49.208;8.806;2024-03-07T00:09:12;11.30;99.90
2050;DHT22;8478;49.208;8.806;2024-03-07T00:11:37;11.20;99.90
2050;DHT22;8478;49.208;8.806;2024-03-07T00:14:04;11.20;99.90
2050;DHT22;8478;49.208;8.806;2024-03-07T00:16:31;11.20;99.90
2050;DHT22;8478;49.208;8.806;2024-03-07T00:18:59;11.20;99.90
2050;DHT22;8478;49.208;8.806;2024-03-07T00:21:26;11.20;99.90
2050;DHT22;8478;49.208;8.806;2024-03-07T00:23:51;11.20;99.90
2050;DHT22;8478;49.208;8.806;2024-03-07T00:26:19;11.20;99.90
2050;DHT22;8478;49.208;8.806;2024-03-07T00:28:44;11.20;99.90
2050;DHT22;8478;49.208;8.806;2024-03-07T00:31:10;11.20;99.90
2050;DHT22;8478;49.208;8.806;2024-03-07T00:33:36;11.20;99.90
2050;DHT22;8478;49.208;8.806;2024-03-07T00:36:02;11.20;99.90
2050;DHT22;8478;49.208;8.806;2024-03-07T00:38:28;11.20;99.90
2050;DHT22;8478;49.208;8.806;2024-03-07T00:40:53;11.20;99.90
2050;DHT22;8478;49.208;8.806;2024-03-07T00:43:19;11.20;99.90
2050;DHT22;8478;49.208;8.806;2024-03-07T00:45:45;11.20;99.90
2050;DHT22;8478;49.208;8.806;2024-03-07T00:48:15;11.20;99.90
2050;DHT22;8478;49.208;8.806;2024-03-07T00:50:41;11.20;99.90
2050;DHT22;8478;49.208;8.806;2024-03-07T00:53:08;11.10;99.90
2050;DHT22;8478;49.208;8.806;2024-03-07T00:55:34;11.20;99.90
2050;DHT22;8478;49.208;8.806;2024-03-07T00:57:59;11.10;99.90
2050;DHT22;8478;49.208;8.806;2024-03-07T01:00:25;11.20;99.90
2050;DHT22;8478;49.208;8.806;2024-03-07T01:02:50;11.10;99.90
2050;DHT22;8478;49.208;8.806;2024-03-07T01:05:19;11.10;99.90
2050;DHT22;8478;49.208;8.806;2024-03-07T01:07:45;11.10;99.90
2050;DHT22;8478;49.208;8.806;2024-03-07T01:10:14;11.10;99.90
2050;DHT22;8478;49.208;8.806;2024-03-07T01:12:40;11.10;99.90
2050;DHT22;8478;49.208;8.806;2024-03-07T01:15:06;11.10;99.90
2050;DHT22;8478;49.208;8.806;2024-03-07T01:17:32;11.10;99.90
2050;DHT22;8478;49.208;8.806;2024-03-07T01:19:58;11.10;99.90
2050;DHT22;8478;49.208;8.806;2024-03-07T01:22:24;11.10;99.90
2050;DHT22;8478;49.208;8.806;2024-03-07T01:24:50;11.10;99.90
2050;DHT22;8478;49.208;8.806;2024-03-07T01:27:18;11.10;99.90
2050;DHT22;8478;49.208;8.806;2024-03-07T01:29:44;11.10;99.90
2050;DHT22;8478;49.208;8.806;2024-03-07T01:32:10;11.10;99.90
2050;DHT22;8478;49.208;8.806;2024-03-07T01:34:36;11.10;99.90
2050;DHT22;8478;49.208;8.806;2024-03-07T01:37:02;11.00;99.90
2050;DHT22;8478;49.208;8.806;2024-03-07T01:39:27;11.00;99.90
2050;DHT22;8478;49.208;8.806;2024-03-07T01:41:54;11.10;99.90
2050;DHT22;8478;49.208;8.806;2024-03-07T01:44:19;11.10;99.90
2050;DHT22;8478;49.208;8.806;2024-03-07T01:46:45;11.00;99.90
2050;DHT22;8478;49.208;8.806;2024-03-07T01:49:11;11.00;99.90
2050;DHT22;8478;49.208;8.806;2024-03-07T01:51:37;11.00;99.90
2050;DHT22;8478;49.208;8.806;2024-03-07T01:54:06;11.00;99.90
2050;DHT22;8478;49.208;8.806;2024-03-07T01:56:32;11.00;99.90
2050;DHT22;8478;49.208;8.806;2024-03-07T01:59:00;11.00;99.90
2050;DHT22;8478;49.208;8.806;2024-03-07T02:01:27;11.00;99.90
2050;DHT22;8478;49.208;8.806;2024-03-07T02:03:53;11.00;99.90
2050;DHT22;8478;49.208;8.806;2024-03-07T02:06:19;11.00;99.90
2050;DHT22;8478;49.208;8.806;2024-03-07T02:08:45;11.00;99.90
2050;DHT22;8478;49.208;8.806;2024-03-07T02:11:10;11.00;99.90
2050;DHT22;8478;49.208;8.806;2024-03-07T02:13:36;11.00;99.90
2050;DHT22;8478;49.208;8.806;2024-03-07T02:16:02;11.00;99.90
2050;DHT22;8478;49.208;8.806;2024-03-07T02:18:28;11.00;99.90
2050;DHT22;8478;49.208;8.806;2024-03-07T02:20:54;11.00;99.90
2050;DHT22;8478;49.208;8.806;2024-03-07T02:23:20;11.00;99.90
2050;DHT22;8478;49.208;8.806;2024-03-07T02:25:46;11.00;99.90
2050;DHT22;8478;49.208;8.806;2024-03-07T02:28:11;11.00;99.90
2050;DHT22;8478;49.208;8.806;2024-03-07T02:30:37;11.00;99.90
2050;DHT22;8478;49.208;8.806;2024-03-07T02:33:03;10.90;99.90
2050;DHT22;8478;49.208;8.806;2024-03-07T02:35:35;11.00;99.90
2050;DHT22;8478;49.208;8.806;2024-03-07T02:38:05;10.90;99.90
2050;DHT22;8478;49.208;8.806;2024-03-07T02:40:31;10.90;99.90
2050;DHT22;8478;49.208;8.806;2024-03-07T02:42:57;10.90;99.90
2050;DHT22;8478;49.208;8.806;2024-03-07T02:45:23;10.90;99.90
2050;DHT22;8478;49.208;8.806;2024-03-07T02:47:49;10.90;99.90
2050;DHT22;8478;49.208;8.806;2024-03-07T02:50:15;10.90;99.90
2050;DHT22;8478;49.208;8.806;2024-03-07T02:52:41;10.90;99.90
2050;DHT22;8478;49.208;8.806;2024-03-07T02:55:07;10.90;99.90
2050;DHT22;8478;49.208;8.806;2024-03-07T02:57:36;10.90;99.90
2050;DHT22;8478;49.208;8.806;2024-03-07T03:00:02;10.90;99.90
2050;DHT22;8478;49.208;8.806;2024-03-07T03:02:28;10.90;99.90
2050;DHT22;8478;49.208;8.806;2024-03-07T03:04:54;10.90;99.90
2050;DHT22;8478;49.208;8.806;2024-03-07T03:07:20;10.90;99.90
2050;DHT22;8478;49.208;8.806;2024-03-07T03:09:46;10.90;99.90
2050;DHT22;8478;49.208;8.806;2024-03-07T03:12:12;10.80;99.90
2050;DHT22;8478;49.208;8.806;2024-03-07T03:14:38;10.90;99.90
2050;DHT22;8478;49.208;8.806;2024-03-07T03:17:05;10.90;99.90
2050;DHT22;8478;49.208;8.806;2024-03-07T03:19:34;10.80;99.90
2050;DHT22;8478;49.208;8.806;2024-03-07T03:22:00;10.90;99.90
2050;DHT22;8478;49.208;8.806;2024-03-07T03:24:26;10.80;99.90
2050;DHT22;8478;49.208;8.806;2024-03-07T03:26:52;10.90;99.90
2050;DHT22;8478;49.208;8.806;2024-03-07T03:29:18;10.80;99.90
2050;DHT22;8478;49.208;8.806;2024-03-07T03:31:43;10.80;99.90
2050;DHT22;8478;49.208;8.806;2024-03-07T03:34:09;10.80;99.90
2050;DHT22;8478;49.208;8.806;2024-03-07T03:36:35;10.80;99.90
2050;DHT22;8478;49.208;8.806;2024-03-07T03:39:01;10.80;99.90
2050;DHT22;8478;49.208;8.806;2024-03-07T03:41:26;10.80;99.90
2050;DHT22;8478;49.208;8.806;2024-03-07T03:43:52;10.80;99.90
2050;DHT22;8478;49.208;8.806;2024-03-07T03:46:18;10.80;99.90
2050;DHT22;8478;49.208;8.806;2024-03-07T03:48:44;10.80;99.90
2050;DHT22;8478;49.208;8.806;2024-03-07T03:51:10;10.80;99.90
2050;DHT22;8478;49.208;8.806;2024-03-07T03:53:38;10.80;99.90
2050;DHT22;8478;49.208;8.806;2024-03-07T03:56:04;10.80;99.90
2050;DHT22;8478;49.208;8.806;2024-03-07T03:58:31;10.70;99.90
2050;DHT22;8478;49.208;8.806;2024-03-07T04:00:57;10.80;99.90
2050;DHT22;8478;49.208;8.806;2024-03-07T04:03:24;10.80;99.90
2050;DHT22;8478;49.208;8.806;2024-03-07T04:05:49;10.80;99.90
2050;DHT22;8478;49.208;8.806;2024-03-07T04:08:15;10.70;99.90
2050;DHT22;8478;49.208;8.806;2024-03-07T04:10:41;10.70;99.90
2050;DHT22;8478;49.208;8.806;2024-03-07T04:13:06;10.70;99.90
2050;DHT22;8478;49.208;8.806;2024-03-07T04:15:33;10.70;99.90
2050;DHT22;8478;49.208;8.806;2024-03-07T04:17:59;10.70;99.90
2050;DHT22;8478;49.208;8.806;2024-03-07T04:20:24;10.70;99.90
2050;DHT22;8478;49.208;8.806;2024-03-07T04:22:50;10.70;99.90
2050;DHT22;8478;49.208;8.806;2024-03-07T04:25:16;10.70;99.90
2050;DHT22;8478;49.208;8.806;2024-03-07T04:27:42;10.70;99.90
2050;DHT22;8478;49.208;8.806;2024-03-07T04:30:08;10.70;99.90
2050;DHT22;8478;49.208;8.806;2024-03-07T04:32:38;10.70;99.90
2050;DHT22;8478;49.208;8.806;2024-03-07T04:35:05;10.70;99.90
2050;DHT22;8478;49.208;8.806;2024-03-07T04:37:33;10.70;99.90
2050;DHT22;8478;49.208;8.806;2024-03-07T04:40:04;10.70;99.90
2050;DHT22;8478;49.208;8.806;2024-03-07T04:42:30;10.70;99.90
2050;DHT22;8478;49.208;8.806;2024-03-07T04:44:56;10.70;99.90
2050;DHT22;8478;49.208;8.806;2024-03-07T04:47:21;10.70;99.90
2050;DHT22;8478;49.208;8.806;2024-03-07T04:49:47;10.60;99.90
2050;DHT22;8478;49.208;8.806;2024-03-07T04:52:13;10.60;99.90
2050;DHT22;8478;49.208;8.806;2024-03-07T04:54:38;10.70;99.90
2050;DHT22;8478;49.208;8.806;2024-03-07T04:57:04;10.60;99.90
2050;DHT22;8478;49.208;8.806;2024-03-07T04:59:31;10.60;99.90
2050;DHT22;8478;49.208;8.806;2024-03-07T05:01:56;10.60;99.90
2050;DHT22;8478;49.208;8.806;2024-03-07T05:04:23;10.60;99.90
2050;DHT22;8478;49.208;8.806;2024-03-07T05:06:49;10.60;99.90
2050;DHT22;8478;49.208;8.806;2024-03-07T05:09:15;10.60;99.90
2050;DHT22;8478;49.208;8.806;2024-03-07T05:11:51;10.60;99.90
2050;DHT22;8478;49.208;8.806;2024-03-07T05:14:17;10.60;99.90
2050;DHT22;8478;49.208;8.806;2024-03-07T05:16:43;10.60;99.90
2050;DHT22;8478;49.208;8.806;2024-03-07T05:19:09;10.60;99.90
2050;DHT22;8478;49.208;8.806;2024-03-07T05:21:34;10.60;99.90
2050;DHT22;8478;49.208;8.806;2024-03-07T05:24:05;10.50;99.90
2050;DHT22;8478;49.208;8.806;2024-03-07T05:26:34;10.50;99.90
2050;DHT22;8478;49.208;8.806;2024-03-07T05:29:06;10.60;99.90
2050;DHT22;8478;49.208;8.806;2024-03-07T05:31:39;10.50;99.90
2050;DHT22;8478;49.208;8.806;2024-03-07T05:34:12;10.50;99.90
2050;DHT22;8478;49.208;8.806;2024-03-07T05:36:38;10.50;99.90
2050;DHT22;8478;49.208;8.806;2024-03-07T05:39:10;10.50;99.90
2050;DHT22;8478;49.208;8.806;2024-03-07T05:41:40;10.50;99.90
2050;DHT22;8478;49.208;8.806;2024-03-07T05:44:06;10.50;99.90
2050;DHT22;8478;49.208;8.806;2024-03-07T05:46:39;10.50;99.90
2050;DHT22;8478;49.208;8.806;2024-03-07T05:49:22;10.50;99.90
2050;DHT22;8478;49.208;8.806;2024-03-07T05:51:48;10.50;99.90
2050;DHT22;8478;49.208;8.806;2024-03-07T05:54:14;10.50;99.90
2050;DHT22;8478;49.208;8.806;2024-03-07T05:56:40;10.50;99.90
2050;DHT22;8478;49.208;8.806;2024-03-07T05:59:07;10.50;99.90
2050;DHT22;8478;49.208;8.806;2024-03-07T06:01:35;10.50;99.90
2050;DHT22;8478;49.208;8.806;2024-03-07T06:04:01;10.50;99.90
2050;DHT22;8478;49.208;8.806;2024-03-07T06:06:28;10.50;99.90
2050;DHT22;8478;49.208;8.806;2024-03-07T06:08:54;10.40;99.90
2050;DHT22;8478;49.208;8.806;2024-03-07T06:11:19;10.50;99.90
2050;DHT22;8478;49.208;8.806;2024-03-07T06:13:47;10.40;99.90
2050;DHT22;8478;49.208;8.806;2024-03-07T06:16:13;10.40;99.90
2050;DHT22;8478;49.208;8.806;2024-03-07T06:18:42;10.50;99.90
2050;DHT22;8478;49.208;8.806;2024-03-07T06:21:08;10.50;99.90
2050;DHT22;8478;49.208;8.806;2024-03-07T06:23:34;10.40;99.90
2050;DHT22;8478;49.208;8.806;2024-03-07T06:26:00;10.40;99.90
2050;DHT22;8478;49.208;8.806;2024-03-07T06:28:26;10.40;99.90
2050;DHT22;8478;49.208;8.806;2024-03-07T06:30:55;10.40;99.90
2050;DHT22;8478;49.208;8.806;2024-03-07T06:33:21;10.40;99.90
2050;DHT22;8478;49.208;8.806;2024-03-07T06:35:47;10.40;99.90
2050;DHT22;8478;49.208;8.806;2024-03-07T06:38:13;10.40;99.90
2050;DHT22;8478;49.208;8.806;2024-03-07T06:40:40;10.40;99.90
2050;DHT22;8478;49.208;8.806;2024-03-07T06:43:06;10.40;99.90
2050;DHT22;8478;49.208;8.806;2024-03-07T06:45:33;10.40;99.90
2050;DHT22;8478;49.208;8.806;2024-03-07T06:47:59;10.30;99.90
2050;DHT22;8478;49.208;8.806;2024-03-07T06:50:25;10.40;99.90
2050;DHT22;8478;49.208;8.806;2024-03-07T06:52:51;10.40;99.90
2050;DHT22;8478;49.208;8.806;2024-03-07T06:55:18;10.40;99.90
2050;DHT22;8478;49.208;8.806;2024-03-07T06:57:47;10.40;99.90
2050;DHT22;8478;49.208;8.806;2024-03-07T07:00:13;10.40;99.90
2050;DHT22;8478;49.208;8.806;2024-03-07T07:02:40;10.30;99.90
2050;DHT22;8478;49.208;8.806;2024-03-07T07:05:09;10.30;99.90
2050;DHT22;8478;49.208;8.806;2024-03-07T07:07:47;10.30;99.90
2050;DHT22;8478;49.208;8.806;2024-03-07T07:10:13;10.30;99.90
2050;DHT22;8478;49.208;8.806;2024-03-07T07:12:49;10.40;99.90
2050;DHT22;8478;49.208;8.806;2024-03-07T07:15:18;10.40;99.90
2050;DHT22;8478;49.208;8.806;2024-03-07T07:17:47;10.40;99.90
2050;DHT22;8478;49.208;8.806;2024-03-07T07:20:15;10.30;99.90
2050;DHT22;8478;49.208;8.806;2024-03-07T07:22:43;10.30;99.90
2050;DHT22;8478;49.208;8.806;2024-03-07T07:25:09;10.30;99.90
2050;DHT22;8478;49.208;8.806;2024-03-07T07:27:43;10.30;99.90
2050;DHT22;8478;49.208;8.806;2024-03-07T07:30:10;10.30;99.90
2050;DHT22;8478;49.208;8.806;2024-03-07T07:32:36;10.30;99.90
2050;DHT22;8478;49.208;8.806;2024-03-07T07:35:03;10.30;99.90
2050;DHT22;8478;49.208;8.806;2024-03-07T07:37:28;10.30;99.90
2050;DHT22;8478;49.208;8.806;2024-03-07T07:39:54;10.30;99.90
2050;DHT22;8478;49.208;8.806;2024-03-07T07:42:19;10.30;99.90
2050;DHT22;8478;49.208;8.806;2024-03-07T07:44:45;10.30;99.90
2050;DHT22;8478;49.208;8.806;2024-03-07T07:47:11;10.20;99.90
2050;DHT22;8478;49.208;8.806;2024-03-07T07:49:40;10.30;99.90
2050;DHT22;8478;49.208;8.806;2024-03-07T07:52:07;10.30;99.90
2050;DHT22;8478;49.208;8.806;2024-03-07T07:54:34;10.30;99.90
2050;DHT22;8478;49.208;8.806;2024-03-07T07:56:59;10.30;99.90
2050;DHT22;8478;49.208;8.806;2024-03-07T07:59:25;10.30;99.90
2050;DHT22;8478;49.208;8.806;2024-03-07T08:01:50;10.30;99.90
2050;DHT22;8478;49.208;8.806;2024-03-07T08:04:18;10.30;99.90
2050;DHT22;8478;49.208;8.806;2024-03-07T08:06:44;10.20;99.90
2050;DHT22;8478;49.208;8.806;2024-03-07T08:09:09;10.20;99.90
2050;DHT22;8478;49.208;8.806;2024-03-07T08:11:36;10.30;99.90
2050;DHT22;8478;49.208;8.806;2024-03-07T08:14:02;10.30;99.90
2050;DHT22;8478;49.208;8.806;2024-03-07T08:16:28;10.30;99.90
2050;DHT22;8478;49.208;8.806;2024-03-07T08:18:55;10.30;99.90
2050;DHT22;8478;49.208;8.806;2024-03-07T08:21:21;10.30;99.90
2050;DHT22;8478;49.208;8.806;2024-03-07T08:23:48;10.20;99.90
2050;DHT22;8478;49.208;8.806;2024-03-07T08:26:14;10.30;99.90
2050;DHT22;8478;49.208;8.806;2024-03-07T08:28:41;10.20;99.90
2050;DHT22;8478;49.208;8.806;2024-03-07T08:31:07;10.20;99.90
2050;DHT22;8478;49.208;8.806;2024-03-07T08:33:35;10.20;99.90
2050;DHT22;8478;49.208;8.806;2024-03-07T08:36:00;10.30;99.90
2050;DHT22;8478;49.208;8.806;2024-03-07T08:38:26;10.30;99.90
2050;DHT22;8478;49.208;8.806;2024-03-07T08:40:52;10.30;99.90
2050;DHT22;8478;49.208;8.806;2024-03-07T08:43:18;10.20;99.90
2050;DHT22;8478;49.208;8.806;2024-03-07T08:45:44;10.30;99.90
2050;DHT22;8478;49.208;8.806;2024-03-07T08:48:09;10.30;99.90
2050;DHT22;8478;49.208;8.806;2024-03-07T08:50:35;10.30;99.90
2050;DHT22;8478;49.208;8.806;2024-03-07T08:53:03;10.30;99.90
2050;DHT22;8478;49.208;8.806;2024-03-07T08:55:31;10.30;99.90
2050;DHT22;8478;49.208;8.806;2024-03-07T08:57:57;10.30;99.90
2050;DHT22;8478;49.208;8.806;2024-03-07T09:00:23;10.30;99.90
2050;DHT22;8478;49.208;8.806;2024-03-07T09:02:56;10.30;99.90
2050;DHT22;8478;49.208;8.806;2024-03-07T09:05:24;10.30;99.90
2050;DHT22;8478;49.208;8.806;2024-03-07T09:07:51;10.30;99.90
2050;DHT22;8478;49.208;8.806;2024-03-07T09:10:18;10.30;99.90
2050;DHT22;8478;49.208;8.806;2024-03-07T09:12:44;10.30;99.90
2050;DHT22;8478;49.208;8.806;2024-03-07T09:15:10;10.30;99.90
2050;DHT22;8478;49.208;8.806;2024-03-07T09:17:37;10.30;99.90
2050;DHT22;8478;49.208;8.806;2024-03-07T09:20:04;10.30;99.90
2050;DHT22;8478;49.208;8.806;2024-03-07T09:22:41;10.30;99.90
2050;DHT22;8478;49.208;8.806;2024-03-07T09:25:07;10.30;99.90
2050;DHT22;8478;49.208;8.806;2024-03-07T09:27:33;10.30;99.90
2050;DHT22;8478;49.208;8.806;2024-03-07T09:29:59;10.20;99.90
2050;DHT22;8478;49.208;8.806;2024-03-07T09:32:24;10.30;99.90
2050;DHT22;8478;49.208;8.806;2024-03-07T09:34:50;10.20;99.90
2050;DHT22;8478;49.208;8.806;2024-03-07T09:37:15;10.30;99.90
2050;DHT22;8478;49.208;8.806;2024-03-07T09:39:41;10.20;99.90
2050;DHT22;8478;49.208;8.806;2024-03-07T09:42:08;10.30;99.90
2050;DHT22;8478;49.208;8.806;2024-03-07T09:44:38;10.20;99.90
2050;DHT22;8478;49.208;8.806;2024-03-07T09:47:05;10.20;99.90
2050;DHT22;8478;49.208;8.806;2024-03-07T09:49:33;10.20;99.90
2050;DHT22;8478;49.208;8.806;2024-03-07T09:52:04;10.30;99.90
2050;DHT22;8478;49.208;8.806;2024-03-07T09:54:34;10.30;99.90
2050;DHT22;8478;49.208;8.806;2024-03-07T09:57:00;10.20;99.90
2050;DHT22;8478;49.208;8.806;2024-03-07T09:59:28;10.30;99.90
2050;DHT22;8478;49.208;8.806;2024-03-07T10:01:59;10.20;99.90
2050;DHT22;8478;49.208;8.806;2024-03-07T10:04:44;10.20;99.90
2050;DHT22;8478;49.208;8.806;2024-03-07T10:07:15;10.20;99.90
2050;DHT22;8478;49.208;8.806;2024-03-07T10:09:42;10.20;99.90
2050;DHT22;8478;49.208;8.806;2024-03-07T10:12:08;10.20;99.90
2050;DHT22;8478;49.208;8.806;2024-03-07T10:14:50;10.20;99.90
2050;DHT22;8478;49.208;8.806;2024-03-07T10:17:19;10.20;99.90
2050;DHT22;8478;49.208;8.806;2024-03-07T10:19:48;10.20;99.90
2050;DHT22;8478;49.208;8.806;2024-03-07T10:22:16;10.30;99.90
2050;DHT22;8478;49.208;8.806;2024-03-07T10:24:50;10.30;99.90
2050;DHT22;8478;49.208;8.806;2024-03-07T10:27:21;10.20;99.90
2050;DHT22;8478;49.208;8.806;2024-03-07T10:29:47;10.20;99.90
2050;DHT22;8478;49.208;8.806;2024-03-07T10:32:22;10.20;99.90
2050;DHT22;8478;49.208;8.806;2024-03-07T10:34:50;10.30;99.90
2050;DHT22;8478;49.208;8.806;2024-03-07T10:37:15;10.30;99.90
2050;DHT22;8478;49.208;8.806;2024-03-07T10:39:45;10.30;99.90
2050;DHT22;8478;49.208;8.806;2024-03-07T10:42:15;10.20;99.90
2050;DHT22;8478;49.208;8.806;2024-03-07T10:44:44;10.30;99.90
2050;DHT22;8478;49.208;8.806;2024-03-07T10:47:16;10.30;99.90
2050;DHT22;8478;49.208;8.806;2024-03-07T10:52:58;10.30;99.90
2050;DHT22;8478;49.208;8.806;2024-03-07T10:55:44;10.30;99.90
2050;DHT22;8478;49.208;8.806;2024-03-07T10:58:27;10.30;99.90
2050;DHT22;8478;49.208;8.806;2024-03-07T11:00:58;10.30;99.90
2050;DHT22;8478;49.208;8.806;2024-03-07T11:03:26;10.30;99.90
2050;DHT22;8478;49.208;8.806;2024-03-07T11:05:52;10.20;99.90
2050;DHT22;8478;49.208;8.806;2024-03-07T11:08:18;10.20;99.90
2050;DHT22;8478;49.208;8.806;2024-03-07T11:10:45;10.30;99.90
2050;DHT22;8478;49.208;8.806;2024-03-07T11:13:13;10.30;99.90
2050;DHT22;8478;49.208;8.806;2024-03-07T11:15:45;10.30;99.90
2050;DHT22;8478;49.208;8.806;2024-03-07T11:18:12;10.30;99.90
2050;DHT22;8478;49.208;8.806;2024-03-07T11:20:39;10.30;99.90
2050;DHT22;8478;49.208;8.806;2024-03-07T11:23:31;10.30;99.90
2050;DHT22;8478;49.208;8.806;2024-03-07T11:26:08;10.20;99.90
2050;DHT22;8478;49.208;8.806;2024-03-07T11:28:35;10.30;99.90
2050;DHT22;8478;49.208;8.806;2024-03-07T11:31:25;10.30;99.90
2050;DHT22;8478;49.208;8.806;2024-03-07T11:34:13;10.30;99.90
2050;DHT22;8478;49.208;8.806;2024-03-07T11:36:46;10.30;99.90
2050;DHT22;8478;49.208;8.806;2024-03-07T11:39:46;10.30;99.90
2050;DHT22;8478;49.208;8.806;2024-03-07T11:44:56;10.30;99.90
2050;DHT22;8478;49.208;8.806;2024-03-07T11:47:23;10.30;99.90
2050;DHT22;8478;49.208;8.806;2024-03-07T11:49:50;10.30;99.90
2050;DHT22;8478;49.208;8.806;2024-03-07T11:52:18;10.30;99.90
2050;DHT22;8478;49.208;8.806;2024-03-07T11:54:44;10.30;99.90
2050;DHT22;8478;49.208;8.806;2024-03-07T11:57:19;10.30;99.90
2050;DHT22;8478;49.208;8.806;2024-03-07T11:59:46;10.30;99.90
2050;DHT22;8478;49.208;8.806;2024-03-07T12:02:15;10.30;99.90
2050;DHT22;8478;49.208;8.806;2024-03-07T12:04:44;10.30;99.90
2050;DHT22;8478;49.208;8.806;2024-03-07T12:07:10;10.30;99.90
2050;DHT22;8478;49.208;8.806;2024-03-07T12:09:43;10.30;99.90
2050;DHT22;8478;49.208;8.806;2024-03-07T12:12:16;10.30;99.90
2050;DHT22;8478;49.208;8.806;2024-03-07T12:14:43;10.30;99.90
2050;DHT22;8478;49.208;8.806;2024-03-07T12:17:09;10.30;99.90
2050;DHT22;8478;49.208;8.806;2024-03-07T12:19:35;10.30;99.90
2050;DHT22;8478;49.208;8.806;2024-03-07T12:22:02;10.30;99.90
2050;DHT22;8478;49.208;8.806;2024-03-07T12:24:31;10.30;99.90
2050;DHT22;8478;49.208;8.806;2024-03-07T12:27:25;10.30;99.90
2050;DHT22;8478;49.208;8.806;2024-03-07T12:29:52;10.30;99.90
2050;DHT22;8478;49.208;8.806;2024-03-07T12:32:19;10.30;99.90
2050;DHT22;8478;49.208;8.806;2024-03-07T12:34:45;10.30;99.90
2050;DHT22;8478;49.208;8.806;2024-03-07T12:37:12;10.30;99.90
2050;DHT22;8478;49.208;8.806;2024-03-07T12:39:45;10.30;99.90
2050;DHT22;8478;49.208;8.806;2024-03-07T12:42:18;10.30;99.90
2050;DHT22;8478;49.208;8.806;2024-03-07T12:44:46;10.30;99.90
2050;DHT22;8478;49.208;8.806;2024-03-07T12:47:13;10.30;99.90
2050;DHT22;8478;49.208;8.806;2024-03-07T12:49:42;10.30;99.90
2050;DHT22;8478;49.208;8.806;2024-03-07T12:52:08;10.30;99.90
2050;DHT22;8478;49.208;8.806;2024-03-07T12:54:37;10.40;99.90
2050;DHT22;8478;49.208;8.806;2024-03-07T12:57:15;10.30;99.90
2050;DHT22;8478;49.208;8.806;2024-03-07T12:59:41;10.30;99.90
2050;DHT22;8478;49.208;8.806;2024-03-07T13:02:11;10.30;99.90
2050;DHT22;8478;49.208;8.806;2024-03-07T13:04:38;10.30;99.90
2050;DHT22;8478;49.208;8.806;2024-03-07T13:07:04;10.30;99.90
2050;DHT22;8478;49.208;8.806;2024-03-07T13:09:34;10.30;99.90
2050;DHT22;8478;49.208;8.806;2024-03-07T13:12:00;10.30;99.90
2050;DHT22;8478;49.208;8.806;2024-03-07T13:14:32;10.30;99.90
2050;DHT22;8478;49.208;8.806;2024-03-07T13:16:59;10.40;99.90
2050;DHT22;8478;49.208;8.806;2024-03-07T13:19:29;10.40;99.90
2050;DHT22;8478;49.208;8.806;2024-03-07T13:21:55;10.30;99.90
2050;DHT22;8478;49.208;8.806;2024-03-07T13:24:22;10.30;99.90
2050;DHT22;8478;49.208;8.806;2024-03-07T13:26:48;10.40;99.90
2050;DHT22;8478;49.208;8.806;2024-03-07T13:29:14;10.40;99.90
2050;DHT22;8478;49.208;8.806;2024-03-07T13:31:40;10.40;99.90
2050;DHT22;8478;49.208;8.806;2024-03-07T13:34:08;10.40;99.90
2050;DHT22;8478;49.208;8.806;2024-03-07T13:36:44;10.40;99.90
2050;DHT22;8478;49.208;8.806;2024-03-07T13:39:11;10.40;99.90
2050;DHT22;8478;49.208;8.806;2024-03-07T13:41:44;10.30;99.90
2050;DHT22;8478;49.208;8.806;2024-03-07T13:44:14;10.40;99.90
2050;DHT22;8478;49.208;8.806;2024-03-07T13:46:39;10.40;99.90
2050;DHT22;8478;49.208;8.806;2024-03-07T13:49:05;10.40;99.90
2050;DHT22;8478;49.208;8.806;2024-03-07T13:51:40;10.40;99.90
2050;DHT22;8478;49.208;8.806;2024-03-07T13:54:22;10.40;99.90
2050;DHT22;8478;49.208;8.806;2024-03-07T13:57:36;10.40;99.90
2050;DHT22;8478;49.208;8.806;2024-03-07T14:06:26;10.40;99.90
2050;DHT22;8478;49.208;8.806;2024-03-07T14:26:46;10.40;99.90
2050;DHT22;8478;49.208;8.806;2024-03-07T14:29:43;10.40;99.90
2050;DHT22;8478;49.208;8.806;2024-03-07T14:32:11;10.50;99.90
2050;DHT22;8478;49.208;8.806;2024-03-07T14:34:47;10.40;99.90
2050;DHT22;8478;49.208;8.806;2024-03-07T14:39:52;10.40;99.90
2050;DHT22;8478;49.208;8.806;2024-03-07T14:42:20;10.40;99.90
2050;DHT22;8478;49.208;8.806;2024-03-07T14:44:47;10.40;99.90
2050;DHT22;8478;49.208;8.806;2024-03-07T14:47:15;10.40;99.90
2050;DHT22;8478;49.208;8.806;2024-03-07T14:49:44;10.40;99.90
2050;DHT22;8478;49.208;8.806;2024-03-07T14:52:10;10.40;99.90
2050;DHT22;8478;49.208;8.806;2024-03-07T14:54:37;10.40;99.90
2050;DHT22;8478;49.208;8.806;2024-03-07T14:57:04;10.50;99.90
2050;DHT22;8478;49.208;8.806;2024-03-07T14:59:31;10.40;99.90
2050;DHT22;8478;49.208;8.806;2024-03-07T15:01:57;10.40;99.90
2050;DHT22;8478;49.208;8.806;2024-03-07T15:04:27;10.40;99.90
2050;DHT22;8478;49.208;8.806;2024-03-07T15:06:57;10.40;99.90
2050;DHT22;8478;49.208;8.806;2024-03-07T15:09:23;10.40;99.90
2050;DHT22;8478;49.208;8.806;2024-03-07T15:11:49;10.50;99.90
2050;DHT22;8478;49.208;8.806;2024-03-07T15:14:15;10.50;99.90
2050;DHT22;8478;49.208;8.806;2024-03-07T15:16:41;10.50;99.90
2050;DHT22;8478;49.208;8.806;2024-03-07T15:19:08;10.50;99.90
2050;DHT22;8478;49.208;8.806;2024-03-07T15:21:35;10.50;99.90
2050;DHT22;8478;49.208;8.806;2024-03-07T15:24:02;10.50;99.90
2050;DHT22;8478;49.208;8.806;2024-03-07T15:26:29;10.40;99.90
2050;DHT22;8478;49.208;8.806;2024-03-07T15:28:57;10.50;99.90
2050;DHT22;8478;49.208;8.806;2024-03-07T15:31:23;10.50;99.90
2050;DHT22;8478;49.208;8.806;2024-03-07T15:33:49;10.50;99.90
2050;DHT22;8478;49.208;8.806;2024-03-07T15:36:17;10.50;99.90
2050;DHT22;8478;49.208;8.806;2024-03-07T15:38:43;10.50;99.90
2050;DHT22;8478;49.208;8.806;2024-03-07T15:41:09;10.50;99.90
2050;DHT22;8478;49.208;8.806;2024-03-07T15:43:37;10.50;99.90
2050;DHT22;8478;49.208;8.806;2024-03-07T15:46:03;10.50;99.90
2050;DHT22;8478;49.208;8.806;2024-03-07T15:48:30;10.50;99.90
2050;DHT22;8478;49.208;8.806;2024-03-07T15:50:56;10.50;99.90
2050;DHT22;8478;49.208;8.806;2024-03-07T15:53:23;10.50;99.90
2050;DHT22;8478;49.208;8.806;2024-03-07T15:55:49;10.50;99.90
2050;DHT22;8478;49.208;8.806;2024-03-07T15:58:15;10.50;99.90
2050;DHT22;8478;49.208;8.806;2024-03-07T16:00:43;10.50;99.90
2050;DHT22;8478;49.208;8.806;2024-03-07T16:03:11;10.50;99.90
2050;DHT22;8478;49.208;8.806;2024-03-07T16:05:38;10.50;99.90
2050;DHT22;8478;49.208;8.806;2024-03-07T16:08:06;10.50;99.90
2050;DHT22;8478;49.208;8.806;2024-03-07T16:10:34;10.50;99.90
2050;DHT22;8478;49.208;8.806;2024-03-07T16:13:03;10.60;99.90
2050;DHT22;8478;49.208;8.806;2024-03-07T16:15:32;10.50;99.90
2050;DHT22;8478;49.208;8.806;2024-03-07T16:17:59;10.50;99.90
2050;DHT22;8478;49.208;8.806;2024-03-07T16:20:25;10.50;99.90
2050;DHT22;8478;49.208;8.806;2024-03-07T16:22:51;10.50;99.90
2050;DHT22;8478;49.208;8.806;2024-03-07T16:25:18;10.50;99.90
2050;DHT22;8478;49.208;8.806;2024-03-07T16:27:46;10.50;99.90
2050;DHT22;8478;49.208;8.806;2024-03-07T16:30:13;10.60;99.90
2050;DHT22;8478;49.208;8.806;2024-03-07T16:32:40;10.60;99.90
2050;DHT22;8478;49.208;8.806;2024-03-07T16:35:07;10.60;99.90
2050;DHT22;8478;49.208;8.806;2024-03-07T16:37:43;10.60;99.90
2050;DHT22;8478;49.208;8.806;2024-03-07T16:40:14;10.60;99.90